Arklow Rock — PBZM — position and weather

sailwx.info

Track history (hours):
 
Tides and Currents Weather Stations Pressure Air Temp Water Temp Dewpoint Dewpoint Depression Visibility Wind Speed Wind Dir Waves Ship Positions

Arklow Rock

Last reported at 2017-Sep-25 18:32 UTC. Time now 2017-Sep-26 00:20 UTC.
Position N 36°38' W 007°50'.

Length 90 m; draft 6.4 m.

Type: Cargo ship. MMSI: 246002000.

Date/timePositionNaut miles runAvg speedWind from/ knotsBaromVisibWave heightAir tempDewpointWater temp
2017-Sep-25 18:32N 36°38' W 007°50'1 9.2
2017-Sep-25 18:27N 36°38' W 007°51'4 9.1
2017-Sep-25 18:00N 36°37' W 007°56'6 9.0
2017-Sep-25 17:20N 36°37' W 008°03'3 9.0
2017-Sep-25 17:00N 36°36' W 008°07'14 9.7
2017-Sep-25 15:33N 36°35' W 008°24'110.6
2017-Sep-25 15:28N 36°35' W 008°25'711.0
2017-Sep-25 14:53N 36°34' W 008°33'1011.1
2017-Sep-25 14:00N 36°33' W 008°45'510.8
2017-Sep-25 13:30N 36°32' W 008°52'510.3
2017-Sep-25 13:00N 36°32' W 008°58'510.3
2017-Sep-25 12:30N 36°32' W 009°05'610.9
2017-Sep-25 11:59N 36°33' W 009°12'510.8
2017-Sep-25 11:30N 36°34' W 009°18'611.1
2017-Sep-25 11:00N 36°38' W 009°22'611.0
2017-Sep-25 10:29N 36°43' W 009°27'710.7
2017-Sep-25 09:50N 36°48' W 009°33'511.9
2017-Sep-25 09:26N 36°53' W 009°34'1510.9
2017-Sep-25 08:05N 37°07' W 009°37'110.8
2017-Sep-25 08:00N 37°08' W 009°38'1710.7
2017-Sep-25 06:26N 37°24' W 009°43'710.5
2017-Sep-25 05:49N 37°31' W 009°45'310.5
2017-Sep-25 05:30N 37°34' W 009°46'710.8
2017-Sep-25 04:50N 37°41' W 009°48'610.5
2017-Sep-25 04:14N 37°47' W 009°51'310.7
2017-Sep-25 04:00N 37°49' W 009°51'510.8
2017-Sep-25 03:30N 37°55' W 009°53'510.8
2017-Sep-25 03:00N 37°60' W 009°55'610.9
2017-Sep-25 02:30N 38°05' W 009°57'510.8
2017-Sep-25 02:01N 38°10' W 009°58'510.8
2017-Sep-25 01:30N 38°16' W 009°60'611.1
2017-Sep-25 01:00N 38°21' W 010°01'611.6
2017-Sep-25 00:30N 38°27' W 010°02'611.6
2017-Sep-25 00:00N 38°32' W 010°04'612.1
2017-Sep-24 23:30N 38°38' W 010°05'611.9
2017-Sep-24 23:00N 38°44' W 010°05'611.9
2017-Sep-24 22:30N 38°50' W 010°05'611.4
2017-Sep-24 22:00N 38°56' W 010°05'611.5
2017-Sep-24 21:30N 39°02' W 010°06'611.6
2017-Sep-24 21:00N 39°08' W 010°06'611.2
2017-Sep-24 20:30N 39°13' W 010°06'610.8
2017-Sep-24 19:59N 39°19' W 010°06'811.1
2017-Sep-24 19:15N 39°27' W 010°06'  
2017-Sep-21 19:26N 49°48' W 003°20'16 8.3
2017-Sep-21 17:28N 49°56' W 002°58'104 9.8
2017-Sep-21 06:47N 50°27' W 000°22'3 9.7
2017-Sep-21 06:30N 50°28' W 000°18'510.4
2017-Sep-21 06:01N 50°30' W 000°10'611.2
2017-Sep-21 05:31N 50°32' W 000°02'611.6
2017-Sep-21 05:00N 50°33' E 000°07'612.0
2017-Sep-21 04:30N 50°35' E 000°16'611.9
2017-Sep-21 04:00N 50°37' E 000°25'611.7
2017-Sep-21 03:30N 50°38' E 000°34'611.3
2017-Sep-21 03:01N 50°41' E 000°41'510.8
2017-Sep-21 02:31N 50°44' E 000°48'510.2
2017-Sep-21 02:00N 50°47' E 000°55'14 9.0
2017-Sep-21 00:26N 50°56' E 001°12'4 8.1
2017-Sep-21 00:00N 50°59' E 001°16'4 7.8
2017-Sep-20 23:31N 51°01' E 001°21'5 7.9
2017-Sep-20 22:53N 51°05' E 001°27'4 8.8
2017-Sep-20 22:26N 51°07' E 001°32'410.1
2017-Sep-20 22:00N 51°10' E 001°37'611.2
2017-Sep-20 21:31N 51°13' E 001°44'612.4
2017-Sep-20 21:00N 51°18' E 001°50'612.8
2017-Sep-20 20:30N 51°24' E 001°55'612.7
2017-Sep-20 20:01N 51°29' E 001°60'612.2
2017-Sep-20 19:30N 51°34' E 002°06'711.8
2017-Sep-20 18:57N 51°39' E 002°13'176 9.8
2017-Sep-20 00:56N 54°05' E 004°57'510.3
2017-Sep-20 00:29N 54°09' E 005°01'510.6
2017-Sep-20 00:00N 54°13' E 005°05'510.5
2017-Sep-19 23:29N 54°18' E 005°10'26110.1
2017-Sep-18 21:36N 58°08' E 008°53'111.2
2017-Sep-18 21:30N 58°09' E 008°54'611.2
2017-Sep-18 21:00N 58°14' E 008°59'611.4
2017-Sep-18 20:30N 58°19' E 009°05'611.3
2017-Sep-18 20:00N 58°24' E 009°10'611.2
2017-Sep-18 19:30N 58°28' E 009°16'611.5
2017-Sep-18 19:00N 58°33' E 009°21'611.5
2017-Sep-18 18:30N 58°38' E 009°27'611.7
2017-Sep-18 18:00N 58°43' E 009°32'611.9
2017-Sep-18 17:30N 58°49' E 009°38'610.9
2017-Sep-18 17:00N 58°53' E 009°43'4 9.1
2017-Sep-18 16:30N 58°57' E 009°47'5 9.6
2017-Sep-18 16:00N 59°02' E 009°44'4 6.8
2017-Sep-18 15:29N 59°04' E 009°39'3 5.7
2017-Sep-18 15:00N 59°07' E 009°37'0 0.2
2017-Sep-18 14:28N 59°07' E 009°37'0 0.0
2017-Sep-18 13:58N 59°07' E 009°37'0 0.0
2017-Sep-18 13:28N 59°07' E 009°37'0 0.0
2017-Sep-18 12:58N 59°07' E 009°37'0 0.0
2017-Sep-18 12:28N 59°07' E 009°37'0 0.0
2017-Sep-18 11:58N 59°07' E 009°37'0 0.0
2017-Sep-18 11:28N 59°07' E 009°37'0 0.0
2017-Sep-18 10:58N 59°07' E 009°37'0 0.0
2017-Sep-18 10:28N 59°07' E 009°37'0 0.0
2017-Sep-18 09:58N 59°07' E 009°37'0 0.0
2017-Sep-18 09:25N 59°07' E 009°37'0 0.0
2017-Sep-18 08:58N 59°07' E 009°37'0 0.0
2017-Sep-18 08:28N 59°07' E 009°37'0 0.0
2017-Sep-18 07:58N 59°07' E 009°37'0 0.0
2017-Sep-18 07:28N 59°07' E 009°37'0 0.0
2017-Sep-18 06:58N 59°07' E 009°37'0 0.0
2017-Sep-18 06:28N 59°07' E 009°37'0 0.0
2017-Sep-18 05:58N 59°07' E 009°37'0 0.0
2017-Sep-18 05:28N 59°07' E 009°37'0 0.0
2017-Sep-18 04:58N 59°07' E 009°37'0 0.0
2017-Sep-18 04:28N 59°07' E 009°37'0 0.0
2017-Sep-18 03:58N 59°07' E 009°37'0 0.0
2017-Sep-18 03:28N 59°07' E 009°37'0 0.0
2017-Sep-18 02:58N 59°07' E 009°37'0 0.0
2017-Sep-18 02:28N 59°07' E 009°37'0 0.0
2017-Sep-18 01:58N 59°07' E 009°37'0 0.0
2017-Sep-18 01:28N 59°07' E 009°37'0 0.0
2017-Sep-18 00:58N 59°07' E 009°37'0 0.0
2017-Sep-18 00:28N 59°07' E 009°37'0 0.0
2017-Sep-17 23:58N 59°07' E 009°37'0 0.0
2017-Sep-17 23:28N 59°07' E 009°37'0 0.0
2017-Sep-17 22:58N 59°07' E 009°37'0 0.0
2017-Sep-17 22:28N 59°07' E 009°37'0 0.0
2017-Sep-17 21:58N 59°07' E 009°37'0 0.0
2017-Sep-17 21:28N 59°07' E 009°37'0 0.0
2017-Sep-17 20:58N 59°07' E 009°37'0 0.0
2017-Sep-17 20:31N 59°07' E 009°37'0 0.0
2017-Sep-17 20:01N 59°07' E 009°37'0 0.0
2017-Sep-17 19:30N 59°07' E 009°37'0 0.0
2017-Sep-17 19:00N 59°07' E 009°37'0 0.0
2017-Sep-17 18:30N 59°07' E 009°37'0 0.0
2017-Sep-17 18:00N 59°07' E 009°37'0 0.0
2017-Sep-17 17:30N 59°07' E 009°37'0 0.0
2017-Sep-17 17:00N 59°07' E 009°37'0 0.0
2017-Sep-17 16:30N 59°07' E 009°37'0 0.0
2017-Sep-17 16:00N 59°07' E 009°37'0 0.0
2017-Sep-17 15:30N 59°07' E 009°37'0 0.0
2017-Sep-17 15:00N 59°07' E 009°37'0 0.0
2017-Sep-17 14:30N 59°07' E 009°37'0 0.0
2017-Sep-17 14:00N 59°07' E 009°37'0 0.0
2017-Sep-17 13:30N 59°07' E 009°37'0 0.0
2017-Sep-17 13:00N 59°07' E 009°37'0 0.0
2017-Sep-17 12:30N 59°07' E 009°37'0 0.0
2017-Sep-17 12:00N 59°07' E 009°37'0 0.0
2017-Sep-17 11:30N 59°07' E 009°37'0 0.0
2017-Sep-17 11:00N 59°07' E 009°37'0 0.0
2017-Sep-17 10:30N 59°07' E 009°37'0 0.0
2017-Sep-17 10:00N 59°07' E 009°37'0 0.0
2017-Sep-17 09:30N 59°07' E 009°37'0 0.0
2017-Sep-17 09:00N 59°07' E 009°37'0 0.0
2017-Sep-17 08:30N 59°07' E 009°37'0 0.0
2017-Sep-17 08:00N 59°07' E 009°37'0 0.0
2017-Sep-17 07:30N 59°07' E 009°37'0 0.0
2017-Sep-17 07:00N 59°07' E 009°37'0 0.0
2017-Sep-17 06:30N 59°07' E 009°37'0 0.0
2017-Sep-17 06:00N 59°07' E 009°37'0 0.0
2017-Sep-17 05:30N 59°07' E 009°37'0 0.0
2017-Sep-17 05:00N 59°07' E 009°37'0 0.0
2017-Sep-17 04:30N 59°07' E 009°37'0 0.0
2017-Sep-17 04:00N 59°07' E 009°37'0 0.0
2017-Sep-17 03:30N 59°07' E 009°37'0 0.0
2017-Sep-17 03:00N 59°07' E 009°37'0 0.0
2017-Sep-17 02:30N 59°07' E 009°37'0 0.0
2017-Sep-17 02:00N 59°07' E 009°37'0 0.0
2017-Sep-17 01:30N 59°07' E 009°37'0 0.0
2017-Sep-17 01:00N 59°07' E 009°37'0 0.0
2017-Sep-17 00:30N 59°07' E 009°37'0 0.0
2017-Sep-17 00:00N 59°07' E 009°37'0 0.0
2017-Sep-16 23:30N 59°07' E 009°37'0 0.0
2017-Sep-16 23:00N 59°07' E 009°37'0 0.0
2017-Sep-16 22:30N 59°07' E 009°37'0 0.0
2017-Sep-16 22:00N 59°07' E 009°37'0 0.0
2017-Sep-16 21:30N 59°07' E 009°37'0 0.0
2017-Sep-16 21:00N 59°07' E 009°37'0 0.0
2017-Sep-16 20:30N 59°07' E 009°37'0 0.0
2017-Sep-16 20:00N 59°07' E 009°37'0 0.0
2017-Sep-16 19:30N 59°07' E 009°37'0 0.0
2017-Sep-16 19:00N 59°07' E 009°37'0 0.0
2017-Sep-16 18:30N 59°07' E 009°37'0 0.0
2017-Sep-16 18:00N 59°07' E 009°37'0 0.0
2017-Sep-16 17:30N 59°07' E 009°37'0 0.0
2017-Sep-16 17:00N 59°07' E 009°37'0 0.0
2017-Sep-16 16:30N 59°07' E 009°37'0 0.0
2017-Sep-16 16:00N 59°07' E 009°37'0 0.0
2017-Sep-16 15:30N 59°07' E 009°37'0 0.0
2017-Sep-16 15:00N 59°07' E 009°37'0 0.0
2017-Sep-16 14:30N 59°07' E 009°37'0 0.0
2017-Sep-16 14:00N 59°07' E 009°37'0 0.0
2017-Sep-16 13:30N 59°07' E 009°37'0 0.0
2017-Sep-16 13:00N 59°07' E 009°37'0 0.0
2017-Sep-16 12:30N 59°07' E 009°37'0 0.0
2017-Sep-16 12:00N 59°07' E 009°37'0 0.0
2017-Sep-16 11:30N 59°07' E 009°37'0 0.0
2017-Sep-16 11:00N 59°07' E 009°37'0 0.0
2017-Sep-16 10:30N 59°07' E 009°37'0 0.0
2017-Sep-16 09:59N 59°07' E 009°37'0 0.0
2017-Sep-16 09:29N 59°07' E 009°37'0 0.0
2017-Sep-16 08:59N 59°07' E 009°37'0 0.0
2017-Sep-16 08:29N 59°07' E 009°37'0 0.0
2017-Sep-16 07:59N 59°07' E 009°37'0 0.0
2017-Sep-16 07:29N 59°07' E 009°37'0 0.0
2017-Sep-16 06:59N 59°07' E 009°37'0 0.0
2017-Sep-16 06:29N 59°07' E 009°37'0 0.0
2017-Sep-16 05:59N 59°07' E 009°37'0 0.0
2017-Sep-16 05:26N 59°07' E 009°37'0 0.0
2017-Sep-16 04:59N 59°07' E 009°37'0 0.0
2017-Sep-16 04:29N 59°07' E 009°37'0 0.0
2017-Sep-16 03:53N 59°07' E 009°37'0 0.0
2017-Sep-16 03:29N 59°07' E 009°37'0 0.0
2017-Sep-16 02:59N 59°07' E 009°37'0 0.0
2017-Sep-16 02:29N 59°07' E 009°37'0 0.0
2017-Sep-16 01:59N 59°07' E 009°37'0 0.0
2017-Sep-16 01:29N 59°07' E 009°37'0 0.0
2017-Sep-16 00:59N 59°07' E 009°37'0 0.0
2017-Sep-16 00:29N 59°07' E 009°37'0 0.0
2017-Sep-15 23:59N 59°07' E 009°37'0 0.0
2017-Sep-15 23:29N 59°07' E 009°37'0 0.0
2017-Sep-15 22:59N 59°07' E 009°37'0 0.0
2017-Sep-15 22:29N 59°07' E 009°37'0 0.0
2017-Sep-15 21:59N 59°07' E 009°37'0 0.0
2017-Sep-15 21:29N 59°07' E 009°37'0 0.0
2017-Sep-15 20:59N 59°07' E 009°37'0 0.0
2017-Sep-15 20:29N 59°07' E 009°37'0 0.0
2017-Sep-15 19:59N 59°07' E 009°37'0 0.0
2017-Sep-15 19:29N 59°07' E 009°37'0 0.0
2017-Sep-15 18:59N 59°07' E 009°37'  
Track history (hours):
 
Tides and Currents Weather Stations Pressure Air Temp Water Temp Dewpoint Dewpoint Depression Visibility Wind Speed Wind Dir Waves Ship Positions

Arklow Rock

Last reported at 2017-Sep-25 18:32 UTC. Time now 2017-Sep-26 00:20 UTC.
Position N 36°38' W 007°50'.

Length 90 m; draft 6.4 m.

Type: Cargo ship. MMSI: 246002000.

Date/timePositionNaut miles runAvg speedWind from/ knotsBaromVisibWave heightAir tempDewpointWater temp
2017-Sep-25 18:32N 36°38' W 007°50'1 9.2
2017-Sep-25 18:27N 36°38' W 007°51'4 9.1
2017-Sep-25 18:00N 36°37' W 007°56'6 9.0
2017-Sep-25 17:20N 36°37' W 008°03'3 9.0
2017-Sep-25 17:00N 36°36' W 008°07'14 9.7
2017-Sep-25 15:33N 36°35' W 008°24'110.6
2017-Sep-25 15:28N 36°35' W 008°25'711.0
2017-Sep-25 14:53N 36°34' W 008°33'1011.1
2017-Sep-25 14:00N 36°33' W 008°45'510.8
2017-Sep-25 13:30N 36°32' W 008°52'510.3
2017-Sep-25 13:00N 36°32' W 008°58'510.3
2017-Sep-25 12:30N 36°32' W 009°05'610.9
2017-Sep-25 11:59N 36°33' W 009°12'510.8
2017-Sep-25 11:30N 36°34' W 009°18'611.1
2017-Sep-25 11:00N 36°38' W 009°22'611.0
2017-Sep-25 10:29N 36°43' W 009°27'710.7
2017-Sep-25 09:50N 36°48' W 009°33'511.9
2017-Sep-25 09:26N 36°53' W 009°34'1510.9
2017-Sep-25 08:05N 37°07' W 009°37'110.8
2017-Sep-25 08:00N 37°08' W 009°38'1710.7
2017-Sep-25 06:26N 37°24' W 009°43'710.5
2017-Sep-25 05:49N 37°31' W 009°45'310.5
2017-Sep-25 05:30N 37°34' W 009°46'710.8
2017-Sep-25 04:50N 37°41' W 009°48'610.5
2017-Sep-25 04:14N 37°47' W 009°51'310.7
2017-Sep-25 04:00N 37°49' W 009°51'510.8
2017-Sep-25 03:30N 37°55' W 009°53'510.8
2017-Sep-25 03:00N 37°60' W 009°55'610.9
2017-Sep-25 02:30N 38°05' W 009°57'510.8
2017-Sep-25 02:01N 38°10' W 009°58'510.8
2017-Sep-25 01:30N 38°16' W 009°60'611.1
2017-Sep-25 01:00N 38°21' W 010°01'611.6
2017-Sep-25 00:30N 38°27' W 010°02'611.6
2017-Sep-25 00:00N 38°32' W 010°04'612.1
2017-Sep-24 23:30N 38°38' W 010°05'611.9
2017-Sep-24 23:00N 38°44' W 010°05'611.9
2017-Sep-24 22:30N 38°50' W 010°05'611.4
2017-Sep-24 22:00N 38°56' W 010°05'611.5
2017-Sep-24 21:30N 39°02' W 010°06'611.6
2017-Sep-24 21:00N 39°08' W 010°06'611.2
2017-Sep-24 20:30N 39°13' W 010°06'610.8
2017-Sep-24 19:59N 39°19' W 010°06'811.1
2017-Sep-24 19:15N 39°27' W 010°06'  
2017-Sep-21 19:26N 49°48' W 003°20'16 8.3
2017-Sep-21 17:28N 49°56' W 002°58'104 9.8
2017-Sep-21 06:47N 50°27' W 000°22'3 9.7
2017-Sep-21 06:30N 50°28' W 000°18'510.4
2017-Sep-21 06:01N 50°30' W 000°10'611.2
2017-Sep-21 05:31N 50°32' W 000°02'611.6
2017-Sep-21 05:00N 50°33' E 000°07'612.0
2017-Sep-21 04:30N 50°35' E 000°16'611.9
2017-Sep-21 04:00N 50°37' E 000°25'611.7
2017-Sep-21 03:30N 50°38' E 000°34'611.3
2017-Sep-21 03:01N 50°41' E 000°41'510.8
2017-Sep-21 02:31N 50°44' E 000°48'510.2
2017-Sep-21 02:00N 50°47' E 000°55'14 9.0
2017-Sep-21 00:26N 50°56' E 001°12'4 8.1
2017-Sep-21 00:00N 50°59' E 001°16'4 7.8
2017-Sep-20 23:31N 51°01' E 001°21'5 7.9
2017-Sep-20 22:53N 51°05' E 001°27'4 8.8
2017-Sep-20 22:26N 51°07' E 001°32'410.1
2017-Sep-20 22:00N 51°10' E 001°37'611.2
2017-Sep-20 21:31N 51°13' E 001°44'612.4
2017-Sep-20 21:00N 51°18' E 001°50'612.8
2017-Sep-20 20:30N 51°24' E 001°55'612.7
2017-Sep-20 20:01N 51°29' E 001°60'612.2
2017-Sep-20 19:30N 51°34' E 002°06'711.8
2017-Sep-20 18:57N 51°39' E 002°13'176 9.8
2017-Sep-20 00:56N 54°05' E 004°57'510.3
2017-Sep-20 00:29N 54°09' E 005°01'510.6
2017-Sep-20 00:00N 54°13' E 005°05'510.5
2017-Sep-19 23:29N 54°18' E 005°10'26110.1
2017-Sep-18 21:36N 58°08' E 008°53'111.2
2017-Sep-18 21:30N 58°09' E 008°54'611.2
2017-Sep-18 21:00N 58°14' E 008°59'611.4
2017-Sep-18 20:30N 58°19' E 009°05'611.3
2017-Sep-18 20:00N 58°24' E 009°10'611.2
2017-Sep-18 19:30N 58°28' E 009°16'611.5
2017-Sep-18 19:00N 58°33' E 009°21'611.5
2017-Sep-18 18:30N 58°38' E 009°27'611.7
2017-Sep-18 18:00N 58°43' E 009°32'611.9
2017-Sep-18 17:30N 58°49' E 009°38'610.9
2017-Sep-18 17:00N 58°53' E 009°43'4 9.1
2017-Sep-18 16:30N 58°57' E 009°47'5 9.6
2017-Sep-18 16:00N 59°02' E 009°44'4 6.8
2017-Sep-18 15:29N 59°04' E 009°39'3 5.7
2017-Sep-18 15:00N 59°07' E 009°37'0 0.2
2017-Sep-18 14:28N 59°07' E 009°37'0 0.0
2017-Sep-18 13:58N 59°07' E 009°37'0 0.0
2017-Sep-18 13:28N 59°07' E 009°37'0 0.0
2017-Sep-18 12:58N 59°07' E 009°37'0 0.0
2017-Sep-18 12:28N 59°07' E 009°37'0 0.0
2017-Sep-18 11:58N 59°07' E 009°37'0 0.0
2017-Sep-18 11:28N 59°07' E 009°37'0 0.0
2017-Sep-18 10:58N 59°07' E 009°37'0 0.0
2017-Sep-18 10:28N 59°07' E 009°37'0 0.0
2017-Sep-18 09:58N 59°07' E 009°37'0 0.0
2017-Sep-18 09:25N 59°07' E 009°37'0 0.0
2017-Sep-18 08:58N 59°07' E 009°37'0 0.0
2017-Sep-18 08:28N 59°07' E 009°37'0 0.0
2017-Sep-18 07:58N 59°07' E 009°37'0 0.0
2017-Sep-18 07:28N 59°07' E 009°37'0 0.0
2017-Sep-18 06:58N 59°07' E 009°37'0 0.0
2017-Sep-18 06:28N 59°07' E 009°37'0 0.0
2017-Sep-18 05:58N 59°07' E 009°37'0 0.0
2017-Sep-18 05:28N 59°07' E 009°37'0 0.0
2017-Sep-18 04:58N 59°07' E 009°37'0 0.0
2017-Sep-18 04:28N 59°07' E 009°37'0 0.0
2017-Sep-18 03:58N 59°07' E 009°37'0 0.0
2017-Sep-18 03:28N 59°07' E 009°37'0 0.0
2017-Sep-18 02:58N 59°07' E 009°37'0 0.0
2017-Sep-18 02:28N 59°07' E 009°37'0 0.0
2017-Sep-18 01:58N 59°07' E 009°37'0 0.0
2017-Sep-18 01:28N 59°07' E 009°37'0 0.0
2017-Sep-18 00:58N 59°07' E 009°37'0 0.0
2017-Sep-18 00:28N 59°07' E 009°37'0 0.0
2017-Sep-17 23:58N 59°07' E 009°37'0 0.0
2017-Sep-17 23:28N 59°07' E 009°37'0 0.0
2017-Sep-17 22:58N 59°07' E 009°37'0 0.0
2017-Sep-17 22:28N 59°07' E 009°37'0 0.0
2017-Sep-17 21:58N 59°07' E 009°37'0 0.0
2017-Sep-17 21:28N 59°07' E 009°37'0 0.0
2017-Sep-17 20:58N 59°07' E 009°37'0 0.0
2017-Sep-17 20:31N 59°07' E 009°37'0 0.0
2017-Sep-17 20:01N 59°07' E 009°37'0 0.0
2017-Sep-17 19:30N 59°07' E 009°37'0 0.0
2017-Sep-17 19:00N 59°07' E 009°37'0 0.0
2017-Sep-17 18:30N 59°07' E 009°37'0 0.0
2017-Sep-17 18:00N 59°07' E 009°37'0 0.0
2017-Sep-17 17:30N 59°07' E 009°37'0 0.0
2017-Sep-17 17:00N 59°07' E 009°37'0 0.0
2017-Sep-17 16:30N 59°07' E 009°37'0 0.0
2017-Sep-17 16:00N 59°07' E 009°37'0 0.0
2017-Sep-17 15:30N 59°07' E 009°37'0 0.0
2017-Sep-17 15:00N 59°07' E 009°37'0 0.0
2017-Sep-17 14:30N 59°07' E 009°37'0 0.0
2017-Sep-17 14:00N 59°07' E 009°37'0 0.0
2017-Sep-17 13:30N 59°07' E 009°37'0 0.0
2017-Sep-17 13:00N 59°07' E 009°37'0 0.0
2017-Sep-17 12:30N 59°07' E 009°37'0 0.0
2017-Sep-17 12:00N 59°07' E 009°37'0 0.0
2017-Sep-17 11:30N 59°07' E 009°37'0 0.0
2017-Sep-17 11:00N 59°07' E 009°37'0 0.0
2017-Sep-17 10:30N 59°07' E 009°37'0 0.0
2017-Sep-17 10:00N 59°07' E 009°37'0 0.0
2017-Sep-17 09:30N 59°07' E 009°37'0 0.0
2017-Sep-17 09:00N 59°07' E 009°37'0 0.0
2017-Sep-17 08:30N 59°07' E 009°37'0 0.0
2017-Sep-17 08:00N 59°07' E 009°37'0 0.0
2017-Sep-17 07:30N 59°07' E 009°37'0 0.0
2017-Sep-17 07:00N 59°07' E 009°37'0 0.0
2017-Sep-17 06:30N 59°07' E 009°37'0 0.0
2017-Sep-17 06:00N 59°07' E 009°37'0 0.0
2017-Sep-17 05:30N 59°07' E 009°37'0 0.0
2017-Sep-17 05:00N 59°07' E 009°37'0 0.0
2017-Sep-17 04:30N 59°07' E 009°37'0 0.0
2017-Sep-17 04:00N 59°07' E 009°37'0 0.0
2017-Sep-17 03:30N 59°07' E 009°37'0 0.0
2017-Sep-17 03:00N 59°07' E 009°37'0 0.0
2017-Sep-17 02:30N 59°07' E 009°37'0 0.0
2017-Sep-17 02:00N 59°07' E 009°37'0 0.0
2017-Sep-17 01:30N 59°07' E 009°37'0 0.0
2017-Sep-17 01:00N 59°07' E 009°37'0 0.0
2017-Sep-17 00:30N 59°07' E 009°37'0 0.0
2017-Sep-17 00:00N 59°07' E 009°37'0 0.0
2017-Sep-16 23:30N 59°07' E 009°37'0 0.0
2017-Sep-16 23:00N 59°07' E 009°37'0 0.0
2017-Sep-16 22:30N 59°07' E 009°37'0 0.0
2017-Sep-16 22:00N 59°07' E 009°37'0 0.0
2017-Sep-16 21:30N 59°07' E 009°37'0 0.0
2017-Sep-16 21:00N 59°07' E 009°37'0 0.0
2017-Sep-16 20:30N 59°07' E 009°37'0 0.0
2017-Sep-16 20:00N 59°07' E 009°37'0 0.0
2017-Sep-16 19:30N 59°07' E 009°37'0 0.0
2017-Sep-16 19:00N 59°07' E 009°37'0 0.0
2017-Sep-16 18:30N 59°07' E 009°37'0 0.0
2017-Sep-16 18:00N 59°07' E 009°37'0 0.0
2017-Sep-16 17:30N 59°07' E 009°37'0 0.0
2017-Sep-16 17:00N 59°07' E 009°37'0 0.0
2017-Sep-16 16:30N 59°07' E 009°37'0 0.0
2017-Sep-16 16:00N 59°07' E 009°37'0 0.0
2017-Sep-16 15:30N 59°07' E 009°37'0 0.0
2017-Sep-16 15:00N 59°07' E 009°37'0 0.0
2017-Sep-16 14:30N 59°07' E 009°37'0 0.0
2017-Sep-16 14:00N 59°07' E 009°37'0 0.0
2017-Sep-16 13:30N 59°07' E 009°37'0 0.0
2017-Sep-16 13:00N 59°07' E 009°37'0 0.0
2017-Sep-16 12:30N 59°07' E 009°37'0 0.0
2017-Sep-16 12:00N 59°07' E 009°37'0 0.0
2017-Sep-16 11:30N 59°07' E 009°37'0 0.0
2017-Sep-16 11:00N 59°07' E 009°37'0 0.0
2017-Sep-16 10:30N 59°07' E 009°37'0 0.0
2017-Sep-16 09:59N 59°07' E 009°37'0 0.0
2017-Sep-16 09:29N 59°07' E 009°37'0 0.0
2017-Sep-16 08:59N 59°07' E 009°37'0 0.0
2017-Sep-16 08:29N 59°07' E 009°37'0 0.0
2017-Sep-16 07:59N 59°07' E 009°37'0 0.0
2017-Sep-16 07:29N 59°07' E 009°37'0 0.0
2017-Sep-16 06:59N 59°07' E 009°37'0 0.0
2017-Sep-16 06:29N 59°07' E 009°37'0 0.0
2017-Sep-16 05:59N 59°07' E 009°37'0 0.0
2017-Sep-16 05:26N 59°07' E 009°37'0 0.0
2017-Sep-16 04:59N 59°07' E 009°37'0 0.0
2017-Sep-16 04:29N 59°07' E 009°37'0 0.0
2017-Sep-16 03:53N 59°07' E 009°37'0 0.0
2017-Sep-16 03:29N 59°07' E 009°37'0 0.0
2017-Sep-16 02:59N 59°07' E 009°37'0 0.0
2017-Sep-16 02:29N 59°07' E 009°37'0 0.0
2017-Sep-16 01:59N 59°07' E 009°37'0 0.0
2017-Sep-16 01:29N 59°07' E 009°37'0 0.0
2017-Sep-16 00:59N 59°07' E 009°37'0 0.0
2017-Sep-16 00:29N 59°07' E 009°37'0 0.0
2017-Sep-15 23:59N 59°07' E 009°37'0 0.0
2017-Sep-15 23:29N 59°07' E 009°37'0 0.0
2017-Sep-15 22:59N 59°07' E 009°37'0 0.0
2017-Sep-15 22:29N 59°07' E 009°37'0 0.0
2017-Sep-15 21:59N 59°07' E 009°37'0 0.0
2017-Sep-15 21:29N 59°07' E 009°37'0 0.0
2017-Sep-15 20:59N 59°07' E 009°37'0 0.0
2017-Sep-15 20:29N 59°07' E 009°37'0 0.0
2017-Sep-15 19:59N 59°07' E 009°37'0 0.0
2017-Sep-15 19:29N 59°07' E 009°37'0 0.0
2017-Sep-15 18:59N 59°07' E 009°37'  

Dump ship's entire track history